Nenana, Alaska
Current Conditions -  °F | °C
As of 4:53 PM on Saturday 22 Nov 2014 (Local Time) from PANN Reporting Station
Clear Clear  
Wind Chill:   Ceiling: Unl
Heat Index:   Visibility: 10mi
Dew Point: -9°   Wind: 0mph
Humidity: 63%   Direction: NA
Pressure: 29.42"   Gusts: NA
Location:  64.56°N, 149.1°W
Report Text: PANN 230153Z AUTO 00000KT 10SM CLR M17/M23 A2942 RMK AO2 SLP977 T11721228 TSNO
Loading
Personal Weather Stations






























Interactive Weather Map New forecast layout! Learn more

10-Day Weather Forecast

Advertisements
Track Severe Weather on mobile